Time;durP1;ratioP1;P1;durP2;ratioP2;P2;SDS_P1;SDS_P2;PMS_P1;PMS_P2;Temp;Humidity;BMP_temperature;BMP_pressure;BME280_temperature;BME280_humidity;BME280_pressure;Samples;Min_cycle;Max_cycle;Signal;HPM_P1;HPM_P2
2022/05/09 00:01:00;;;;;;;16.85;13.13;;;;;;;13.76;66.15;99826.63;5172088;28;20170;-81
2022/05/09 00:03:53;;;;;;;17.05;12.73;;;;;;;13.72;66.60;99833.25;5186040;28;20082;-81
2022/05/09 00:06:45;;;;;;;14.40;12.07;;;;;;;13.53;65.98;99820.78;5185446;28;20054;-81
2022/05/09 00:09:35;;;;;;;16.75;12.90;;;;;;;13.76;65.81;99824.78;5194031;28;20057;-80
2022/05/09 00:12:26;;;;;;;17.27;12.88;;;;;;;13.65;66.52;99840.13;5192306;28;20056;-81
2022/05/09 00:15:18;;;;;;;18.23;13.27;;;;;;;13.86;66.19;99846.09;5185594;28;20113;-81
2022/05/09 00:18:08;;;;;;;20.52;13.30;;;;;;;13.58;66.17;99829.19;5187557;28;20061;-81
2022/05/09 00:20:58;;;;;;;16.60;12.90;;;;;;;13.47;66.56;99838.16;5195403;28;20184;-81
2022/05/09 00:23:49;;;;;;;16.38;12.85;;;;;;;13.55;66.62;99842.81;5189752;28;20420;-81
2022/05/09 00:26:39;;;;;;;19.42;13.05;;;;;;;13.32;66.46;99819.13;5188582;28;20045;-81
2022/05/09 00:29:29;;;;;;;18.42;12.25;;;;;;;13.49;66.19;99830.88;5170053;28;20053;-81
2022/05/09 00:32:20;;;;;;;16.75;13.35;;;;;;;13.19;65.39;99826.53;5196137;28;20491;-82
2022/05/09 00:35:11;;;;;;;20.75;13.02;;;;;;;13.37;66.66;99830.19;5206271;28;20053;-81
2022/05/09 00:38:02;;;;;;;20.13;14.20;;;;;;;13.38;67.00;99828.38;5209353;28;20056;-80
2022/05/09 00:44:16;;;;;;;17.77;13.15;;;;;;;13.17;66.69;99831.13;5209024;28;20179;-81
2022/05/09 00:47:08;;;;;;;18.02;12.82;;;;;;;12.87;67.71;99805.47;5194664;28;20048;-81
2022/05/09 00:50:01;;;;;;;17.20;12.18;;;;;;;12.89;66.87;99822.16;5208963;28;20105;-81
2022/05/09 00:52:59;;;;;;;16.13;12.50;;;;;;;12.86;65.98;99809.13;5189337;28;20049;-81
2022/05/09 00:55:54;;;;;;;17.05;12.90;;;;;;;12.80;67.07;99809.69;5187663;28;20060;-81
2022/05/09 00:58:50;;;;;;;16.20;12.73;;;;;;;12.87;67.16;99813.47;5191594;28;20119;-81
2022/05/09 01:01:41;;;;;;;18.50;13.90;;;;;;;13.03;67.22;99832.41;5201827;28;20050;-81
2022/05/09 01:04:42;;;;;;;20.73;13.68;;;;;;;12.90;68.06;99818.50;5186271;28;20419;-81
2022/05/09 01:07:32;;;;;;;20.58;12.90;;;;;;;12.85;66.87;99826.09;5194245;28;20057;-81
2022/05/09 01:10:29;;;;;;;20.58;13.65;;;;;;;12.66;66.62;99827.72;5186771;28;20500;-81
2022/05/09 01:13:24;;;;;;;16.02;11.85;;;;;;;12.59;65.91;99820.44;5189590;28;20056;-81
2022/05/09 01:16:18;;;;;;;18.02;13.05;;;;;;;12.52;66.93;99820.13;5174496;28;20045;-81
2022/05/09 01:19:25;;;;;;;16.08;11.32;;;;;;;12.63;66.65;99838.63;5195010;28;20049;-81
2022/05/09 01:22:24;;;;;;;17.58;13.18;;;;;;;12.68;66.95;99832.88;5209016;28;20049;-81
2022/05/09 01:25:16;;;;;;;20.83;13.85;;;;;;;12.79;67.76;99832.78;5188380;28;20054;-81
2022/05/09 01:28:07;;;;;;;19.70;14.20;;;;;;;12.72;68.41;99830.81;5199622;28;20215;-81
2022/05/09 01:31:01;;;;;;;19.38;14.23;;;;;;;12.74;68.42;99820.88;5191356;28;20444;-81
2022/05/09 01:33:53;;;;;;;18.67;13.73;;;;;;;12.73;68.02;99829.84;5185685;28;20519;-81
2022/05/09 01:36:46;;;;;;;20.70;14.13;;;;;;;12.77;68.19;99833.91;5202225;28;20057;-80
2022/05/09 01:39:36;;;;;;;19.10;14.07;;;;;;;12.73;67.63;99827.19;5188864;28;20133;-81
2022/05/09 01:42:27;;;;;;;17.90;13.88;;;;;;;12.50;68.00;99827.41;5203989;28;20511;-81
2022/05/09 01:45:17;;;;;;;18.67;13.38;;;;;;;12.40;67.60;99816.72;5202232;28;20058;-81
2022/05/09 01:51:16;;;;;;;25.73;14.65;;;;;;;12.40;67.78;99822.03;5201774;28;20107;-81
2022/05/09 01:54:07;;;;;;;20.38;13.70;;;;;;;12.43;67.55;99832.41;5188730;28;20065;-81
2022/05/09 01:56:57;;;;;;;22.13;13.43;;;;;;;12.38;67.98;99828.47;5192151;28;20053;-81
2022/05/09 01:59:48;;;;;;;19.95;14.43;;;;;;;12.33;68.31;99812.94;5184083;28;20438;-80
2022/05/09 02:02:39;;;;;;;21.33;14.80;;;;;;;12.35;67.86;99831.41;5204056;28;20116;-81
2022/05/09 02:05:29;;;;;;;18.67;14.60;;;;;;;12.20;68.13;99821.13;5194060;28;20053;-81
2022/05/09 02:08:19;;;;;;;20.60;14.35;;;;;;;12.15;68.77;99811.88;5200792;28;20058;-81
2022/05/09 02:11:10;;;;;;;19.30;14.77;;;;;;;12.30;68.89;99847.78;5194258;28;20097;-81
2022/05/09 02:14:02;;;;;;;21.58;15.50;;;;;;;12.51;68.18;99829.06;5198482;28;20049;-80
2022/05/09 02:16:52;;;;;;;20.52;15.25;;;;;;;12.14;68.59;99788.94;5185607;28;20108;-81
2022/05/09 02:19:43;;;;;;;25.35;15.70;;;;;;;12.16;68.92;99822.38;5191668;28;20169;-81
2022/05/09 02:22:33;;;;;;;20.15;15.40;;;;;;;12.16;68.33;99825.03;5205069;28;20060;-81
2022/05/09 02:25:29;;;;;;;21.17;14.50;;;;;;;11.96;67.27;99818.81;5191453;28;20131;-81
2022/05/09 02:28:21;;;;;;;17.83;12.88;;;;;;;11.86;68.18;99825.88;5193143;28;20107;-80
2022/05/09 02:31:11;;;;;;;19.30;13.98;;;;;;;11.85;67.68;99840.13;5184416;28;20061;-80
2022/05/09 02:34:02;;;;;;;17.67;13.90;;;;;;;11.72;67.25;99832.34;5184764;28;20053;-81
2022/05/09 02:36:52;;;;;;;18.05;14.15;;;;;;;11.73;67.19;99834.03;5185503;28;20054;-81
2022/05/09 02:39:42;;;;;;;20.23;13.88;;;;;;;11.72;68.36;99850.94;5184914;28;20057;-81
2022/05/09 02:42:31;;;;;;;16.85;13.50;;;;;;;11.77;67.44;99851.38;5189914;28;20048;-81
2022/05/09 02:45:22;;;;;;;22.65;15.13;;;;;;;11.77;68.52;99838.09;5205410;28;20056;-80
2022/05/09 02:48:13;;;;;;;19.48;14.48;;;;;;;11.93;68.52;99866.06;5190192;28;20589;-81
2022/05/09 02:51:05;;;;;;;22.73;15.23;;;;;;;11.97;68.72;99862.16;5196992;28;20054;-81
2022/05/09 02:53:56;;;;;;;23.23;15.80;;;;;;;11.80;69.29;99850.28;5171206;28;20093;-81
2022/05/09 02:56:46;;;;;;;23.25;14.35;;;;;;;11.77;69.47;99831.94;5205231;28;20053;-81
2022/05/09 02:59:37;;;;;;;20.70;14.13;;;;;;;11.68;69.65;99836.22;5205999;28;20688;-81
2022/05/09 03:02:29;;;;;;;19.42;14.20;;;;;;;11.80;69.25;99836.16;5176270;28;20132;-79
2022/05/09 03:05:19;;;;;;;24.70;15.43;;;;;;;11.73;69.81;99834.03;5190288;28;20187;-78
2022/05/09 03:08:12;;;;;;;20.02;14.40;;;;;;;11.69;69.63;99829.13;5171917;28;20459;-81
2022/05/09 03:11:03;;;;;;;21.52;14.48;;;;;;;11.56;69.86;99834.63;5169344;28;20148;-80
2022/05/09 03:13:54;;;;;;;25.38;15.93;;;;;;;11.72;70.27;99832.34;5159629;23;20054;-71
2022/05/09 03:16:45;;;;;;;20.52;15.10;;;;;;;11.67;69.17;99849.66;5144292;28;20113;-71
2022/05/09 03:19:35;;;;;;;22.42;14.90;;;;;;;11.69;69.69;99842.41;5157380;28;20512;-71
2022/05/09 03:22:25;;;;;;;19.63;14.68;;;;;;;11.76;68.85;99849.72;5159167;28;20201;-71
2022/05/09 03:25:16;;;;;;;22.55;15.38;;;;;;;11.58;69.34;99835.31;5143136;28;20061;-71
2022/05/09 03:28:09;;;;;;;21.73;14.05;;;;;;;11.42;69.26;99851.72;5167816;28;20416;-71
2022/05/09 03:31:05;;;;;;;20.20;14.35;;;;;;;11.35;69.24;99861.13;5145646;28;20062;-71
2022/05/09 03:33:55;;;;;;;22.95;14.15;;;;;;;11.43;68.88;99858.72;5147511;28;20078;-70
2022/05/09 03:36:46;;;;;;;19.35;14.80;;;;;;;11.56;69.53;99857.69;5142281;28;20058;-70
2022/05/09 03:39:36;;;;;;;19.95;14.82;;;;;;;11.57;69.56;99862.84;5155710;28;20054;-70
2022/05/09 03:42:26;;;;;;;19.17;14.50;;;;;;;11.62;69.54;99863.31;5161751;28;20046;-71
2022/05/09 03:45:17;;;;;;;21.00;14.10;;;;;;;11.52;69.40;99855.28;5146755;28;20063;-71
2022/05/09 03:48:08;;;;;;;23.13;15.27;;;;;;;11.48;69.31;99855.66;5162714;28;20148;-71
2022/05/09 03:51:01;;;;;;;19.80;15.00;;;;;;;11.51;69.87;99858.91;5140822;28;20063;-69
2022/05/09 03:53:51;;;;;;;19.88;15.35;;;;;;;11.46;69.70;99854.97;5133658;28;20047;-71
2022/05/09 03:56:41;;;;;;;21.58;14.73;;;;;;;11.47;68.87;99861.94;5150238;28;20058;-71
2022/05/09 03:59:32;;;;;;;19.58;13.88;;;;;;;11.26;69.42;99862.78;5161154;28;20074;-71
2022/05/09 04:02:22;;;;;;;18.92;12.93;;;;;;;11.22;68.58;99861.31;5149672;28;20162;-71
2022/05/09 04:05:16;;;;;;;20.65;14.20;;;;;;;11.22;68.53;99863.13;5160812;28;20424;-71
2022/05/09 04:08:17;;;;;;;18.58;13.85;;;;;;;11.22;69.37;99861.31;5151773;28;20532;-72
2022/05/09 04:11:07;;;;;;;23.13;14.07;;;;;;;11.10;68.80;99851.72;5145954;28;20081;-71
2022/05/09 04:13:58;;;;;;;17.75;12.65;;;;;;;11.11;68.26;99860.53;5155268;28;20194;-71
2022/05/09 04:16:50;;;;;;;20.08;13.52;;;;;;;11.09;68.95;99871.25;5152440;28;20532;-71
2022/05/09 04:19:41;;;;;;;20.53;14.10;;;;;;;11.27;68.87;99872.41;5147777;28;20060;-71
2022/05/09 04:22:31;;;;;;;21.65;15.43;;;;;;;11.35;69.14;99871.75;5143465;28;20186;-70
2022/05/09 04:25:22;;;;;;;21.35;15.57;;;;;;;11.32;69.55;99868.53;5139673;28;20424;-71
2022/05/09 04:28:17;;;;;;;19.40;14.55;;;;;;;11.18;69.74;99865.19;5162936;28;20057;-71
2022/05/09 04:31:07;;;;;;;21.03;14.33;;;;;;;11.17;69.29;99868.81;5153214;28;20464;-70
2022/05/09 04:33:58;;;;;;;20.30;15.00;;;;;;;11.10;68.36;99853.53;5129083;28;20313;-70
2022/05/09 04:36:48;;;;;;;21.67;14.25;;;;;;;11.20;67.29;99867.75;5149818;28;20054;-70
2022/05/09 04:39:38;;;;;;;20.85;14.48;;;;;;;11.26;67.75;99872.56;5144760;28;20427;-71
2022/05/09 04:42:28;;;;;;;26.55;16.40;;;;;;;11.34;68.79;99875.41;5151967;28;20133;-70
2022/05/09 04:45:19;;;;;;;98.93;67.50;;;;;;;11.26;69.91;99856.63;5151489;28;20453;-71
2022/05/09 04:48:09;;;;;;;83.72;56.60;;;;;;;11.31;68.89;99878.31;5148800;28;20412;-72
2022/05/09 04:50:59;;;;;;;62.50;42.00;;;;;;;11.38;69.03;99887.44;5154673;28;20057;-71
2022/05/09 04:53:49;;;;;;;45.75;30.38;;;;;;;11.34;68.84;99871.91;5159480;28;20068;-71
2022/05/09 04:56:40;;;;;;;36.38;21.90;;;;;;;11.51;70.17;99892.59;5140471;28;20524;-69
2022/05/09 04:59:33;;;;;;;33.03;20.15;;;;;;;11.60;71.47;99896.28;5142649;28;20054;-72
2022/05/09 05:02:23;;;;;;;34.95;20.25;;;;;;;11.89;71.50;99889.41;5145314;28;20062;-70
2022/05/09 05:05:14;;;;;;;27.35;19.75;;;;;;;11.95;70.60;99896.84;5141045;28;20058;-70
2022/05/09 05:08:04;;;;;;;29.08;19.88;;;;;;;11.93;70.31;99903.28;5141609;28;20066;-69
2022/05/09 05:10:54;;;;;;;35.50;19.30;;;;;;;11.98;69.94;99893.91;5149117;28;20090;-71
2022/05/09 05:13:48;;;;;;;32.75;19.77;;;;;;;12.03;70.22;99898.84;5140336;28;20055;-70
2022/05/09 05:19:48;;;;;;;34.33;21.85;;;;;;;12.27;70.58;99893.25;5141688;28;20047;-69
2022/05/09 05:22:44;;;;;;;34.08;20.77;;;;;;;12.29;70.13;99903.75;5142987;28;20145;-69
2022/05/09 05:25:34;;;;;;;34.22;21.10;;;;;;;12.29;69.82;99903.75;5143893;28;20413;-68
2022/05/09 05:28:24;;;;;;;37.50;23.92;;;;;;;12.50;70.62;99901.03;5144050;28;20133;-68
2022/05/09 05:31:16;;;;;;;33.72;22.25;;;;;;;12.54;70.09;99907.78;5144028;28;20047;-69
2022/05/09 05:34:06;;;;;;;36.45;25.80;;;;;;;12.62;70.70;99908.78;5143872;28;20127;-69
2022/05/09 05:36:56;;;;;;;33.92;23.00;;;;;;;12.69;70.73;99912.59;5144457;28;20074;-70
2022/05/09 05:39:47;;;;;;;39.13;23.65;;;;;;;12.73;70.53;99915.00;5157917;28;20058;-69
2022/05/09 05:42:39;;;;;;;38.60;22.85;;;;;;;12.76;70.45;99907.56;5143074;28;20110;-69
2022/05/09 05:45:29;;;;;;;35.05;24.05;;;;;;;12.89;70.51;99894.88;5148242;28;20049;-70
2022/05/09 05:48:21;;;;;;;34.35;23.27;;;;;;;13.09;70.18;99917.03;5147096;28;20430;-70
2022/05/09 05:51:14;;;;;;;31.50;22.52;;;;;;;13.09;69.21;99914.38;5165534;28;20409;-70
2022/05/09 05:54:05;;;;;;;37.28;24.55;;;;;;;13.29;70.02;99927.75;5139006;28;20120;-71
2022/05/09 05:56:56;;;;;;;37.95;24.90;;;;;;;13.54;69.69;99916.56;5163076;28;20065;-69
2022/05/09 05:59:53;;;;;;;36.38;23.98;;;;;;;13.52;69.21;99918.53;5155809;28;20140;-69
2022/05/09 06:02:44;;;;;;;36.83;24.17;;;;;;;13.52;68.83;99915.84;5143073;28;20073;-69
2022/05/09 06:05:34;;;;;;;38.75;24.92;;;;;;;13.73;69.28;99922.84;5145280;28;20091;-69
2022/05/09 06:08:25;;;;;;;37.33;24.65;;;;;;;13.90;68.98;99930.13;5146073;28;20050;-69
2022/05/09 06:11:15;;;;;;;35.55;23.90;;;;;;;13.74;69.60;99911.22;5152202;28;20057;-71
2022/05/09 06:14:07;;;;;;;38.08;24.58;;;;;;;13.98;68.74;99924.94;5151730;28;20133;-69
2022/05/09 06:16:57;;;;;;;36.40;23.88;;;;;;;14.19;68.20;99930.09;5147662;28;20276;-70
2022/05/09 06:19:48;;;;;;;34.72;22.40;;;;;;;14.30;68.07;99929.94;5146634;28;20081;-70
2022/05/09 06:22:41;;;;;;;39.60;25.00;;;;;;;14.38;69.02;99933.69;5153761;28;20058;-70
2022/05/09 06:25:36;;;;;;;34.25;22.75;;;;;;;14.41;68.34;99923.56;5128295;28;20066;-69
2022/05/09 06:28:26;;;;;;;36.33;22.83;;;;;;;14.58;67.94;99935.34;5140089;28;20065;-67
2022/05/09 06:31:18;;;;;;;35.53;22.95;;;;;;;14.59;67.23;99931.69;5125879;28;20057;-67
2022/05/09 06:34:11;;;;;;;29.33;21.00;;;;;;;15.13;65.31;99929.16;5144105;28;20614;-67
2022/05/09 06:37:02;;;;;;;28.15;20.13;;;;;;;15.24;64.46;99932.47;5143010;28;20057;-68
2022/05/09 06:39:52;;;;;;;28.35;21.33;;;;;;;15.29;64.58;99932.00;5133638;28;20062;-66
2022/05/09 06:42:44;;;;;;;35.42;20.77;;;;;;;15.33;64.70;99927.19;5153572;28;20058;-67
2022/05/09 06:45:34;;;;;;;29.27;20.20;;;;;;;15.20;65.41;99936.44;5148769;28;20065;-67
2022/05/09 06:48:25;;;;;;;32.38;22.55;;;;;;;15.50;64.50;99940.56;5146784;28;20053;-70
2022/05/09 06:51:15;;;;;;;28.95;19.08;;;;;;;15.42;64.92;99936.97;5151435;28;20623;-67
2022/05/09 06:54:06;;;;;;;33.20;21.30;;;;;;;15.72;64.73;99931.25;5146874;28;20065;-66
2022/05/09 06:56:56;;;;;;;39.08;20.25;;;;;;;15.90;64.08;99925.09;5152686;28;20508;-67
2022/05/09 06:59:47;;;;;;;39.03;20.52;;;;;;;15.96;64.59;99933.31;5145492;28;20055;-66
2022/05/09 07:02:37;;;;;;;27.92;19.65;;;;;;;16.32;63.59;99921.66;5145425;28;20050;-66
2022/05/09 07:05:28;;;;;;;30.60;21.02;;;;;;;16.20;64.44;99923.78;5150382;28;20765;-67
2022/05/09 07:08:23;;;;;;;27.55;20.55;;;;;;;16.68;63.83;99933.06;5158386;28;20055;-66
2022/05/09 07:11:15;;;;;;;31.17;18.77;;;;;;;17.05;61.54;99931.91;5130225;28;20055;-67
2022/05/09 07:14:12;;;;;;;31.77;17.38;;;;;;;17.26;60.31;99928.81;5151230;28;20054;-67
2022/05/09 07:17:04;;;;;;;25.17;16.48;;;;;;;17.52;60.15;99928.69;5162250;28;20065;-67
2022/05/09 07:19:55;;;;;;;28.52;15.95;;;;;;;17.91;57.74;99852.94;5168518;28;20054;-68
2022/05/09 07:22:45;;;;;;;28.05;15.45;;;;;;;18.97;56.86;99936.75;5143100;28;20153;-68
2022/05/09 07:25:36;;;;;;;21.73;14.55;;;;;;;20.24;52.03;99936.38;5154907;28;20054;-66
2022/05/09 07:28:28;;;;;;;30.77;14.57;;;;;;;20.91;52.06;99927.38;5155560;28;20051;-67
2022/05/09 07:31:19;;;;;;;21.48;14.57;;;;;;;21.45;50.08;99914.34;5153537;28;20061;-67
2022/05/09 07:34:10;;;;;;;17.17;12.75;;;;;;;21.96;49.82;99902.56;5141439;28;20148;-67
2022/05/09 07:37:00;;;;;;;24.50;11.70;;;;;;;22.75;46.68;99913.91;5160226;28;20486;-67
2022/05/09 07:39:50;;;;;;;19.80;11.77;;;;;;;22.98;45.94;99924.47;5151563;28;20091;-68
2022/05/09 07:42:41;;;;;;;20.45;11.20;;;;;;;23.72;45.05;99930.94;5140618;28;20053;-69
2022/05/09 07:45:31;;;;;;;25.33;11.63;;;;;;;23.26;45.92;99930.78;5149572;28;20134;-69
2022/05/09 07:48:23;;;;;;;20.10;11.25;;;;;;;22.58;47.62;99931.47;5155837;28;20060;-67
2022/05/09 07:51:15;;;;;;;24.05;10.70;;;;;;;23.61;46.92;99917.97;5139191;28;20204;-68
2022/05/09 07:54:06;;;;;;;16.55;10.43;;;;;;;24.16;45.20;99929.47;5140468;28;20477;-68
2022/05/09 07:57:04;;;;;;;23.38;10.15;;;;;;;24.07;44.05;99926.16;5144556;28;20046;-67
2022/05/09 07:59:53;;;;;;;19.60;9.95;;;;;;;24.88;42.08;99927.69;5146538;28;20058;-67
2022/05/09 08:02:44;;;;;;;19.10;9.43;;;;;;;24.62;43.80;99928.59;5145274;28;20134;-68
2022/05/09 08:05:34;;;;;;;18.92;9.10;;;;;;;24.79;42.05;99927.09;5147038;28;20104;-68
2022/05/09 08:08:25;;;;;;;14.73;9.23;;;;;;;25.01;41.19;99933.06;5151767;28;20053;-69
2022/05/09 08:11:17;;;;;;;18.33;9.55;;;;;;;26.20;40.78;99931.50;5146796;28;20057;-67
2022/05/09 08:14:07;;;;;;;12.82;9.18;;;;;;;26.35;39.00;99919.44;5155352;28;20072;-67
2022/05/09 08:17:08;;;;;;;15.00;9.50;;;;;;;26.41;39.09;99926.69;5147989;28;20050;-67
2022/05/09 08:19:58;;;;;;;16.80;8.77;;;;;;;25.88;40.45;99916.31;5149204;28;20054;-67
2022/05/09 08:23:02;;;;;;;14.48;9.00;;;;;;;26.90;42.01;99925.78;5154654;28;20516;-67
2022/05/09 08:25:55;;;;;;;17.63;8.60;;;;;;;27.24;39.84;99911.75;5157574;28;20071;-68
2022/05/09 08:28:45;;;;;;;15.63;8.43;;;;;;;26.62;40.27;99920.88;5160122;28;20066;-66
2022/05/09 08:31:36;;;;;;;16.35;8.35;;;;;;;27.07;39.67;99925.97;5143579;28;20062;-67
2022/05/09 08:34:26;;;;;;;14.05;7.78;;;;;;;26.61;41.50;99921.91;5147564;28;20101;-66
2022/05/09 08:37:18;;;;;;;12.07;8.40;;;;;;;26.29;41.85;99923.91;5146184;28;20568;-67
2022/05/09 08:40:10;;;;;;;13.25;8.60;;;;;;;25.21;40.70;99911.28;5126827;28;20149;-67
2022/05/09 08:43:27;;;;;;;15.25;7.80;;;;;;;25.54;40.33;99912.97;5142582;28;20062;-67
2022/05/09 08:46:33;;;;;;;13.52;7.78;;;;;;;26.73;39.54;99923.91;5144686;28;20414;-67
2022/05/09 08:49:44;;;;;;;10.50;8.05;;;;;;;26.93;38.43;99929.94;5157533;28;20605;-68
2022/05/09 08:52:44;;;;;;;15.88;10.95;;;;;;;27.35;38.09;99927.31;5141472;28;20066;-68
2022/05/09 08:55:39;;;;;;;13.27;8.40;;;;;;;27.00;40.44;99930.69;5144285;28;20042;-67
2022/05/09 08:58:49;;;;;;;12.98;8.10;;;;;;;26.19;38.93;99916.25;5150747;28;20062;-67
2022/05/09 09:02:10;;;;;;;16.15;8.35;;;;;;;26.52;39.83;99923.25;5160563;28;20368;-67
2022/05/09 09:05:03;;;;;;;12.25;8.02;;;;;;;26.47;38.91;99895.91;5145935;28;20173;-67
2022/05/09 09:08:24;;;;;;;12.70;7.97;;;;;;;27.02;40.76;99906.78;5153779;28;20057;-67
2022/05/09 09:11:22;;;;;;;16.77;8.30;;;;;;;27.39;37.67;99918.47;5142809;28;20051;-67
2022/05/09 09:14:28;;;;;;;16.90;7.82;;;;;;;28.21;37.60;99917.81;5141546;28;20137;-67
2022/05/09 09:17:37;;;;;;;11.02;8.43;;;;;;;28.06;36.60;99912.81;5145190;28;20174;-68
2022/05/09 09:21:00;;;;;;;11.60;7.28;;;;;;;27.85;35.74;99905.22;5151811;28;20061;-67
2022/05/09 09:24:21;;;;;;;9.15;6.97;;;;;;;27.93;37.70;99904.88;5136673;28;20061;-68
2022/05/09 09:27:35;;;;;;;10.10;7.55;;;;;;;28.34;34.95;99911.28;5156294;28;20046;-68
2022/05/09 09:30:26;;;;;;;12.05;7.65;;;;;;;27.55;38.90;99908.81;5150848;28;20069;-69
2022/05/09 09:33:19;;;;;;;11.57;7.15;;;;;;;28.04;36.33;99901.31;5150774;28;20061;-69
2022/05/09 09:36:13;;;;;;;13.52;7.30;;;;;;;27.88;36.52;99880.19;5163513;28;20156;-69
2022/05/09 09:39:17;;;;;;;11.02;7.25;;;;;;;26.77;38.62;99901.44;5154437;28;20061;-68
2022/05/09 09:42:08;;;;;;;9.43;7.05;;;;;;;27.86;38.35;99901.44;5142375;28;20425;-67
2022/05/09 09:45:00;;;;;;;11.20;7.00;;;;;;;26.97;38.17;99898.47;5142979;28;20130;-69
2022/05/09 09:48:18;;;;;;;8.25;6.95;;;;;;;27.83;39.66;99897.28;5149874;28;20528;-67
2022/05/09 09:51:11;;;;;;;11.60;6.88;;;;;;;27.72;38.33;99897.25;5142354;28;20520;-67
2022/05/09 09:54:02;;;;;;;10.27;7.40;;;;;;;25.79;40.43;99891.25;5145697;28;20055;-67
2022/05/09 09:56:53;;;;;;;13.32;7.22;;;;;;;25.02;42.51;99891.31;5163565;28;20124;-67
2022/05/09 09:59:44;;;;;;;12.10;7.07;;;;;;;26.57;43.06;99892.69;5156988;28;20532;-67
2022/05/09 10:02:35;;;;;;;13.68;6.93;;;;;;;27.48;40.59;99886.25;5134547;28;20100;-67
2022/05/09 10:05:43;;;;;;;13.13;7.53;;;;;;;26.90;42.16;99886.84;5143637;28;20162;-66
2022/05/09 10:08:38;;;;;;;9.23;6.60;;;;;;;25.80;39.86;99876.69;5149672;28;20060;-67
2022/05/09 10:11:30;;;;;;;11.38;7.40;;;;;;;25.96;40.38;99880.69;5163571;28;20058;-67
2022/05/09 10:14:35;;;;;;;13.57;7.40;;;;;;;26.82;41.31;99873.53;5124265;28;20050;-67
2022/05/09 10:17:25;;;;;;;9.80;7.10;;;;;;;26.39;38.42;99878.00;5155881;28;20092;-67
2022/05/09 10:20:48;;;;;;;20.08;7.13;;;;;;;26.26;39.93;99875.41;5162012;28;20117;-68
2022/05/09 10:26:59;;;;;;;13.13;7.25;;;;;;;26.94;42.30;99874.44;5149783;28;20424;-67
2022/05/09 10:29:53;;;;;;;10.10;6.80;;;;;;;28.15;39.36;99875.13;5149638;28;20069;-69
2022/05/09 10:32:45;;;;;;;12.88;7.18;;;;;;;28.54;37.78;99876.31;5153271;28;20051;-69
2022/05/09 10:35:42;;;;;;;6.55;5.45;;;;;;;28.10;35.41;99859.47;5162730;28;20042;-68
2022/05/09 10:38:46;;;;;;;7.50;5.57;;;;;;;27.48;35.10;99861.75;5152783;28;20152;-69
2022/05/09 10:41:52;;;;;;;17.20;7.10;;;;;;;27.10;38.22;99843.84;5146241;28;20046;-68
2022/05/09 10:44:55;;;;;;;10.30;6.32;;;;;;;27.56;36.67;99846.97;5146474;28;20126;-68
2022/05/09 10:47:57;;;;;;;13.10;6.50;;;;;;;27.35;36.07;99856.50;5129549;28;20669;-68
2022/05/09 10:50:57;;;;;;;10.30;6.13;;;;;;;27.85;38.18;99848.00;5153056;28;20293;-68
2022/05/09 10:53:48;;;;;;;8.82;5.95;;;;;;;27.51;37.20;99844.09;5140056;28;20120;-68
2022/05/09 10:56:49;;;;;;;8.57;5.38;;;;;;;27.88;39.38;99839.31;5154285;28;20057;-68
2022/05/09 10:59:42;;;;;;;14.25;6.68;;;;;;;27.66;37.74;99827.34;5133151;28;20047;-68
2022/05/09 11:02:38;;;;;;;6.45;5.13;;;;;;;26.62;36.15;99831.13;5139967;28;20050;-68
2022/05/09 11:05:39;;;;;;;10.00;5.45;;;;;;;27.22;39.62;99824.03;5144063;28;20057;-68
2022/05/09 11:08:45;;;;;;;8.00;5.43;;;;;;;28.22;39.29;99834.94;5155673;28;20140;-66
2022/05/09 11:12:00;;;;;;;9.32;5.18;;;;;;;26.89;36.69;99826.16;5140771;28;20049;-71
2022/05/09 11:15:27;;;;;;;6.43;5.20;;;;;;;27.26;34.58;99819.81;5141412;28;20070;-68
2022/05/09 11:19:06;;;;;;;6.80;5.20;;;;;;;26.66;36.21;99821.44;5142657;28;20050;-69
2022/05/09 11:22:22;;;;;;;5.55;3.97;;;;;;;26.98;34.84;99820.38;5154945;28;20078;-68
2022/05/09 11:25:38;;;;;;;5.03;4.18;;;;;;;27.79;34.94;99813.50;5142428;28;20485;-68
2022/05/09 11:28:45;;;;;;;5.72;4.60;;;;;;;27.24;33.34;99814.56;5148314;28;20126;-69
2022/05/09 11:32:07;;;;;;;6.43;4.30;;;;;;;27.30;34.83;99801.94;5140656;28;20050;-68
2022/05/09 11:35:34;;;;;;;7.85;4.60;;;;;;;27.34;34.95;99806.66;5140473;28;20050;-69
2022/05/09 11:38:32;;;;;;;6.63;4.60;;;;;;;26.77;33.14;99794.50;5136950;28;20058;-69
2022/05/09 11:41:36;;;;;;;5.88;4.35;;;;;;;27.78;33.93;99798.19;5139563;28;20057;-69
2022/05/09 11:44:42;;;;;;;5.88;4.10;;;;;;;27.27;34.06;99794.22;5142833;28;20065;-68
2022/05/09 11:47:51;;;;;;;6.82;4.50;;;;;;;26.96;33.49;99798.03;5144714;28;20061;-68
2022/05/09 11:50:59;;;;;;;6.70;4.38;;;;;;;26.04;35.88;99788.03;5143136;28;20055;-68
2022/05/09 11:53:56;;;;;;;5.40;4.32;;;;;;;26.92;35.19;99789.47;5139762;28;20059;-69
2022/05/09 11:56:50;;;;;;;6.57;4.80;;;;;;;27.18;34.66;99777.38;5150236;28;20062;-68
2022/05/09 11:59:50;;;;;;;7.82;4.15;;;;;;;26.69;35.57;99793.78;5141608;28;20261;-68
2022/05/09 12:02:50;;;;;;;5.30;4.30;;;;;;;26.62;33.52;99781.28;5140377;28;20050;-68
2022/05/09 12:05:49;;;;;;;6.65;4.38;;;;;;;27.18;35.01;99774.66;5131106;28;20054;-68
2022/05/09 12:08:49;;;;;;;7.78;4.40;;;;;;;26.93;36.02;99774.81;5147324;28;20165;-68
2022/05/09 12:11:48;;;;;;;11.05;4.82;;;;;;;27.28;33.93;99774.09;5160987;28;20055;-68
2022/05/09 12:14:43;;;;;;;6.97;4.10;;;;;;;27.59;33.27;99771.06;5133465;28;20113;-67
2022/05/09 12:17:38;;;;;;;8.27;3.72;;;;;;;26.56;32.23;99760.47;5150119;28;20673;-68
2022/05/09 12:20:28;;;;;;;4.60;3.55;;;;;;;27.07;33.11;99768.09;5145738;28;20132;-68
2022/05/09 12:24:26;;;;;;;8.43;4.40;;;;;;;26.73;33.57;99755.22;5165255;28;20118;-68
2022/05/09 12:27:45;;;;;;;7.25;3.85;;;;;;;26.47;34.12;99763.50;5131697;28;20109;-68
2022/05/09 12:30:56;;;;;;;7.40;4.10;;;;;;;27.04;33.63;99751.41;5158233;28;20068;-68
2022/05/09 12:33:50;;;;;;;6.65;4.05;;;;;;;26.67;32.09;99751.53;5144859;28;20063;-68
2022/05/09 12:36:41;;;;;;;4.20;3.80;;;;;;;25.57;34.04;99754.22;5142679;28;20055;-69
2022/05/09 12:39:42;;;;;;;6.47;4.20;;;;;;;25.83;34.41;99753.97;5170793;28;20058;-68
2022/05/09 12:42:42;;;;;;;4.00;3.25;;;;;;;26.08;32.71;99758.50;5144462;28;20066;-69
2022/05/09 12:45:38;;;;;;;4.65;3.75;;;;;;;26.29;33.13;99746.34;5156025;28;20069;-68
2022/05/09 12:48:29;;;;;;;5.45;3.75;;;;;;;26.65;33.24;99740.88;5155703;28;20053;-68
2022/05/09 12:51:21;;;;;;;6.40;3.38;;;;;;;26.55;33.66;99724.28;5143058;28;20539;-69
2022/05/09 12:54:14;;;;;;;4.28;3.28;;;;;;;26.58;31.18;99729.25;5146543;28;20591;-69
2022/05/09 12:57:06;;;;;;;4.17;3.50;;;;;;;26.68;32.59;99737.69;5147679;28;20058;-68
2022/05/09 12:59:56;;;;;;;5.13;3.72;;;;;;;26.15;33.99;99727.47;5134726;28;20170;-68
2022/05/09 13:03:08;;;;;;;7.68;4.03;;;;;;;26.29;31.21;99725.44;5145070;28;20563;-69
2022/05/09 13:06:20;;;;;;;7.18;4.30;;;;;;;26.98;32.23;99720.50;5153112;28;20070;-70
2022/05/09 13:09:23;;;;;;;15.93;3.78;;;;;;;26.55;33.59;99718.84;5149503;28;20069;-68
2022/05/09 13:12:29;;;;;;;6.82;3.80;;;;;;;27.11;33.19;99716.75;5156310;28;20050;-68
2022/05/09 13:15:20;;;;;;;9.45;4.47;;;;;;;25.76;34.91;99705.13;5155107;28;20096;-71
2022/05/09 13:18:16;;;;;;;5.07;3.75;;;;;;;25.83;36.38;99712.38;5142310;28;20053;-70
2022/05/09 13:21:09;;;;;;;5.45;3.75;;;;;;;26.37;34.64;99708.81;5145235;28;20058;-70
2022/05/09 13:24:03;;;;;;;7.80;3.78;;;;;;;25.03;34.89;99703.06;5140203;28;20054;-70
2022/05/09 13:27:00;;;;;;;7.88;4.35;;;;;;;25.37;35.47;99709.06;5141570;28;20054;-70
2022/05/09 13:29:54;;;;;;;5.65;4.28;;;;;;;25.80;33.81;99708.25;5142506;28;20054;-72
2022/05/09 13:32:55;;;;;;;5.60;3.90;;;;;;;25.46;34.07;99690.59;5163250;28;20064;-71
2022/05/09 13:35:55;;;;;;;12.40;4.78;;;;;;;26.14;35.51;99701.38;5138336;28;20069;-70
2022/05/09 13:38:48;;;;;;;8.60;4.20;;;;;;;26.25;34.47;99697.84;5140538;28;20510;-71
2022/05/09 13:41:38;;;;;;;4.40;3.97;;;;;;;25.95;33.53;99699.72;5156140;28;20096;-70
2022/05/09 13:44:31;;;;;;;6.00;4.28;;;;;;;26.51;32.60;99693.16;5148493;28;20102;-70